Pagina principale
METAR-TAF:

METAR-TAF

Aeroporti :

Aeroporto di Lamezia Terme

Lamezia Terme, Italia

latitudine: 38-54N, longitudine: 016-15E, altezza: 15 m

Osservazione

Il bollettino è stato emesso 16 minuti fa, alle 19:20 UTC
Vento 3 kt da sud/sud-est, variando fra est/sud-est e sud
Temperature 18°C
Umidità 77%
Pressione 1017 hPa
Visibilità 10 km o più

METAR: LICA 241920Z AUTO 15003KT 110V190 9999 NCD 18/14 Q1017

Ora: 21:36 (19:36 UTC)

Previsione

Il bollettino è stato emesso 2 ore e 36 minuti fa, alle 17:00 UTC
Previsione valida dal 24 alle 18 UTC al 25 alle 18 UTC
Vento 5 kt da direzioni variabili
Visibilità 10 km o più
Poco nuvoloso ad un'altezza di 4000 ft
Evoluzione graduale
dal 25 alle 08 UTC al 25 alle 10 UTC
Vento 13 kt da ovest
Temporaneamente
dal 25 alle 14 UTC al 25 alle 18 UTC
Visibilità: 4000 m
rovesci di pioggia,

TAF: LICA 241700Z 2418/2518 VRB05KT 9999 FEW040 BECMG 2508/2510 26013KT TEMPO 2514/2518 4000 SHRA

Osservazioni e previsioni meteorologiche di più di 4000 aeroporti (messaggi METAR e TAF).

Le stazioni disponibili sono rappresentate dai dischi gialli e rossi sulla carta.

Puntare il mouse per vedere il nome della stazione.

Clicca sopra per visualizzare le osservazioni e previsioni meteorologiche.

Per cambiare la mappa : fare clic sui pulsanti verdi con una croce nera per ingrandire, il pulsante verde con un trattino per diminuire, o sulla freccia verde per le mappe adiacenti.


METAR-TAF: